createdAt,value
2019-05-10T07:24:30.927Z,99.90
2019-05-10T07:34:36.058Z,99.90
2019-05-10T07:44:41.538Z,99.90
2019-05-10T07:54:45.228Z,99.80
2019-05-10T08:04:40.029Z,68.70
2019-05-10T08:14:44.626Z,47.30
2019-05-10T08:24:55.005Z,42.30
2019-05-10T08:34:54.848Z,36.60
2019-05-10T08:44:53.644Z,30.40
2019-05-10T08:54:49.973Z,29.50
2019-05-10T10:05:40.266Z,27.10
2019-05-10T10:15:42.028Z,26.70
2019-05-10T10:25:43.493Z,29.60
2019-05-10T10:35:47.923Z,36.50
2019-05-10T10:45:46.988Z,36.30
2019-05-10T10:55:54.184Z,41.10
2019-05-10T11:05:50.320Z,42.50
2019-05-10T11:15:52.597Z,42.40
2019-05-10T11:25:56.440Z,40.50
2019-05-10T11:35:57.626Z,40.50
2019-05-10T11:45:58.087Z,40.70
2019-05-10T11:56:01.807Z,40.70
2019-05-10T12:06:06.179Z,46.30
2019-05-10T12:16:02.011Z,47.60
2019-05-10T12:27:13.325Z,51.20
2019-05-10T12:36:05.338Z,51.20
2019-05-10T12:46:07.360Z,52.70
2019-05-10T12:56:08.826Z,52.60
2019-05-10T13:06:10.258Z,55.60
2019-05-10T13:16:11.979Z,61.00
2019-05-10T13:26:14.000Z,67.30
2019-05-10T13:36:15.355Z,87.80
2019-05-10T13:46:17.423Z,99.90
2019-05-10T13:56:18.705Z,99.90
2019-05-10T14:06:20.030Z,99.90
2019-05-10T14:16:22.486Z,99.90
2019-05-10T14:26:28.795Z,98.60
2019-05-10T14:36:34.070Z,98.50
2019-05-10T14:56:41.847Z,88.20
2019-05-10T15:06:44.726Z,85.60
2019-05-10T15:16:51.417Z,95.40
2019-05-10T15:26:57.565Z,95.40
2019-05-10T15:37:09.134Z,90.40
2019-05-10T15:57:19.354Z,96.50
2019-05-10T16:07:16.570Z,99.90
2019-05-10T16:17:18.548Z,99.90
2019-05-10T16:27:18.285Z,99.90
2019-05-10T16:37:19.547Z,99.90
2019-05-10T16:47:26.745Z,99.90
2019-05-10T16:57:31.948Z,99.90
